sensor_id;sensor_type;location;lat;lon;timestamp;P1;durP1;ratioP1;P2;durP2;ratioP2
31424;SDS011;18054;51.572;7.372;2023-05-03T00:02:34;16.00;;;6.85;;
31424;SDS011;18054;51.572;7.372;2023-05-03T00:05:04;14.95;;;6.88;;
31424;SDS011;18054;51.572;7.372;2023-05-03T00:07:33;22.85;;;6.55;;
31424;SDS011;18054;51.572;7.372;2023-05-03T00:12:29;11.50;;;5.88;;
31424;SDS011;18054;51.572;7.372;2023-05-03T00:14:57;12.80;;;6.40;;
31424;SDS011;18054;51.572;7.372;2023-05-03T00:17:24;19.35;;;6.40;;
31424;SDS011;18054;51.572;7.372;2023-05-03T00:19:53;23.40;;;6.70;;
31424;SDS011;18054;51.572;7.372;2023-05-03T00:22:21;18.42;;;7.10;;
31424;SDS011;18054;51.572;7.372;2023-05-03T00:24:49;13.10;;;6.50;;
31424;SDS011;18054;51.572;7.372;2023-05-03T00:29:44;15.45;;;6.82;;
31424;SDS011;18054;51.572;7.372;2023-05-03T00:34:39;13.00;;;6.57;;
31424;SDS011;18054;51.572;7.372;2023-05-03T00:37:08;15.32;;;6.95;;
31424;SDS011;18054;51.572;7.372;2023-05-03T00:39:35;23.20;;;6.70;;
31424;SDS011;18054;51.572;7.372;2023-05-03T00:42:03;12.38;;;6.35;;
31424;SDS011;18054;51.572;7.372;2023-05-03T00:44:30;13.70;;;6.30;;
31424;SDS011;18054;51.572;7.372;2023-05-03T00:46:58;19.23;;;6.88;;
31424;SDS011;18054;51.572;7.372;2023-05-03T00:49:26;11.25;;;6.47;;
31424;SDS011;18054;51.572;7.372;2023-05-03T00:51:54;10.90;;;6.65;;
31424;SDS011;18054;51.572;7.372;2023-05-03T00:54:26;14.55;;;6.15;;
31424;SDS011;18054;51.572;7.372;2023-05-03T00:56:54;15.07;;;6.65;;
31424;SDS011;18054;51.572;7.372;2023-05-03T00:59:22;11.32;;;6.68;;
31424;SDS011;18054;51.572;7.372;2023-05-03T01:01:50;16.17;;;6.85;;
31424;SDS011;18054;51.572;7.372;2023-05-03T01:04:18;17.35;;;7.00;;
31424;SDS011;18054;51.572;7.372;2023-05-03T01:06:47;14.23;;;6.57;;
31424;SDS011;18054;51.572;7.372;2023-05-03T01:09:20;18.13;;;6.55;;
31424;SDS011;18054;51.572;7.372;2023-05-03T01:11:54;15.60;;;6.63;;
31424;SDS011;18054;51.572;7.372;2023-05-03T01:14:27;18.05;;;6.25;;
31424;SDS011;18054;51.572;7.372;2023-05-03T01:16:55;11.90;;;6.82;;
31424;SDS011;18054;51.572;7.372;2023-05-03T01:19:27;13.30;;;6.97;;
31424;SDS011;18054;51.572;7.372;2023-05-03T01:21:58;10.73;;;6.55;;
31424;SDS011;18054;51.572;7.372;2023-05-03T01:24:30;18.10;;;6.45;;
31424;SDS011;18054;51.572;7.372;2023-05-03T01:26:59;11.95;;;6.63;;
31424;SDS011;18054;51.572;7.372;2023-05-03T01:29:27;16.98;;;6.97;;
31424;SDS011;18054;51.572;7.372;2023-05-03T01:31:55;10.90;;;6.18;;
31424;SDS011;18054;51.572;7.372;2023-05-03T01:34:24;16.58;;;6.55;;
31424;SDS011;18054;51.572;7.372;2023-05-03T01:36:56;12.45;;;6.22;;
31424;SDS011;18054;51.572;7.372;2023-05-03T01:39:26;20.50;;;7.82;;
31424;SDS011;18054;51.572;7.372;2023-05-03T01:41:55;21.33;;;6.85;;
31424;SDS011;18054;51.572;7.372;2023-05-03T01:44:24;12.80;;;6.13;;
31424;SDS011;18054;51.572;7.372;2023-05-03T01:46:51;13.18;;;6.63;;
31424;SDS011;18054;51.572;7.372;2023-05-03T01:49:19;13.32;;;6.38;;
31424;SDS011;18054;51.572;7.372;2023-05-03T01:51:46;17.10;;;6.75;;
31424;SDS011;18054;51.572;7.372;2023-05-03T01:54:14;11.82;;;6.13;;
31424;SDS011;18054;51.572;7.372;2023-05-03T01:56:41;17.17;;;6.63;;
31424;SDS011;18054;51.572;7.372;2023-05-03T01:59:09;14.38;;;7.00;;
31424;SDS011;18054;51.572;7.372;2023-05-03T02:01:38;13.80;;;6.20;;
31424;SDS011;18054;51.572;7.372;2023-05-03T02:04:06;20.48;;;7.13;;
31424;SDS011;18054;51.572;7.372;2023-05-03T02:06:34;14.45;;;6.90;;
31424;SDS011;18054;51.572;7.372;2023-05-03T02:09:02;13.02;;;7.25;;
31424;SDS011;18054;51.572;7.372;2023-05-03T02:11:29;20.10;;;6.55;;
31424;SDS011;18054;51.572;7.372;2023-05-03T02:13:57;16.05;;;6.85;;
31424;SDS011;18054;51.572;7.372;2023-05-03T02:16:24;16.17;;;7.07;;
31424;SDS011;18054;51.572;7.372;2023-05-03T02:18:54;14.05;;;6.72;;
31424;SDS011;18054;51.572;7.372;2023-05-03T02:21:24;14.10;;;7.10;;
31424;SDS011;18054;51.572;7.372;2023-05-03T02:23:52;14.90;;;7.63;;
31424;SDS011;18054;51.572;7.372;2023-05-03T02:26:20;15.50;;;5.88;;
31424;SDS011;18054;51.572;7.372;2023-05-03T02:28:47;11.40;;;6.13;;
31424;SDS011;18054;51.572;7.372;2023-05-03T02:31:15;16.75;;;7.18;;
31424;SDS011;18054;51.572;7.372;2023-05-03T02:33:42;15.07;;;7.55;;
31424;SDS011;18054;51.572;7.372;2023-05-03T02:36:11;10.90;;;6.70;;
31424;SDS011;18054;51.572;7.372;2023-05-03T02:38:39;11.80;;;6.70;;
31424;SDS011;18054;51.572;7.372;2023-05-03T02:41:06;11.18;;;6.95;;
31424;SDS011;18054;51.572;7.372;2023-05-03T02:43:34;14.23;;;7.43;;
31424;SDS011;18054;51.572;7.372;2023-05-03T02:46:01;14.55;;;6.90;;
31424;SDS011;18054;51.572;7.372;2023-05-03T02:48:29;11.77;;;7.40;;
31424;SDS011;18054;51.572;7.372;2023-05-03T02:50:57;17.50;;;7.60;;
31424;SDS011;18054;51.572;7.372;2023-05-03T02:53:25;20.55;;;7.15;;
31424;SDS011;18054;51.572;7.372;2023-05-03T02:55:57;20.05;;;6.95;;
31424;SDS011;18054;51.572;7.372;2023-05-03T02:58:24;16.85;;;7.50;;
31424;SDS011;18054;51.572;7.372;2023-05-03T03:03:19;17.40;;;7.13;;
31424;SDS011;18054;51.572;7.372;2023-05-03T03:05:48;20.40;;;7.20;;
31424;SDS011;18054;51.572;7.372;2023-05-03T03:08:17;16.08;;;7.22;;
31424;SDS011;18054;51.572;7.372;2023-05-03T03:10:46;14.57;;;6.45;;
31424;SDS011;18054;51.572;7.372;2023-05-03T03:13:15;18.77;;;7.70;;
31424;SDS011;18054;51.572;7.372;2023-05-03T03:15:42;17.63;;;7.45;;
31424;SDS011;18054;51.572;7.372;2023-05-03T03:18:11;17.15;;;7.03;;
31424;SDS011;18054;51.572;7.372;2023-05-03T03:20:38;16.33;;;7.13;;
31424;SDS011;18054;51.572;7.372;2023-05-03T03:23:06;13.27;;;6.55;;
31424;SDS011;18054;51.572;7.372;2023-05-03T03:25:33;12.18;;;6.80;;
31424;SDS011;18054;51.572;7.372;2023-05-03T03:28:02;11.18;;;6.25;;
31424;SDS011;18054;51.572;7.372;2023-05-03T03:30:30;17.33;;;7.53;;
31424;SDS011;18054;51.572;7.372;2023-05-03T03:33:11;15.55;;;7.13;;
31424;SDS011;18054;51.572;7.372;2023-05-03T03:35:40;16.38;;;7.95;;
31424;SDS011;18054;51.572;7.372;2023-05-03T03:38:09;23.88;;;7.97;;
31424;SDS011;18054;51.572;7.372;2023-05-03T03:40:44;19.30;;;8.02;;
31424;SDS011;18054;51.572;7.372;2023-05-03T03:43:13;16.02;;;8.07;;
31424;SDS011;18054;51.572;7.372;2023-05-03T03:45:41;12.93;;;7.50;;
31424;SDS011;18054;51.572;7.372;2023-05-03T03:48:11;18.02;;;7.75;;
31424;SDS011;18054;51.572;7.372;2023-05-03T03:50:39;16.88;;;7.53;;
31424;SDS011;18054;51.572;7.372;2023-05-03T03:53:07;20.13;;;8.18;;
31424;SDS011;18054;51.572;7.372;2023-05-03T03:55:38;17.67;;;7.75;;
31424;SDS011;18054;51.572;7.372;2023-05-03T03:58:06;15.77;;;7.93;;
31424;SDS011;18054;51.572;7.372;2023-05-03T04:00:35;14.52;;;8.45;;
31424;SDS011;18054;51.572;7.372;2023-05-03T04:03:09;16.27;;;7.32;;
31424;SDS011;18054;51.572;7.372;2023-05-03T04:05:37;20.00;;;8.27;;
31424;SDS011;18054;51.572;7.372;2023-05-03T04:08:04;19.98;;;8.93;;
31424;SDS011;18054;51.572;7.372;2023-05-03T04:10:34;18.30;;;8.05;;
31424;SDS011;18054;51.572;7.372;2023-05-03T04:13:01;14.35;;;7.57;;
31424;SDS011;18054;51.572;7.372;2023-05-03T04:15:29;21.40;;;7.90;;
31424;SDS011;18054;51.572;7.372;2023-05-03T04:17:59;15.23;;;7.82;;
31424;SDS011;18054;51.572;7.372;2023-05-03T04:20:27;22.10;;;8.15;;
31424;SDS011;18054;51.572;7.372;2023-05-03T04:22:55;22.17;;;8.52;;
31424;SDS011;18054;51.572;7.372;2023-05-03T04:25:27;32.67;;;8.63;;
31424;SDS011;18054;51.572;7.372;2023-05-03T04:28:02;27.98;;;8.82;;
31424;SDS011;18054;51.572;7.372;2023-05-03T04:30:30;21.70;;;9.80;;
31424;SDS011;18054;51.572;7.372;2023-05-03T04:33:00;15.73;;;8.63;;
31424;SDS011;18054;51.572;7.372;2023-05-03T04:35:31;20.90;;;9.93;;
31424;SDS011;18054;51.572;7.372;2023-05-03T04:38:04;25.33;;;9.20;;
31424;SDS011;18054;51.572;7.372;2023-05-03T04:40:32;24.67;;;8.40;;
31424;SDS011;18054;51.572;7.372;2023-05-03T04:43:04;18.45;;;8.65;;
31424;SDS011;18054;51.572;7.372;2023-05-03T04:45:35;28.67;;;8.90;;
31424;SDS011;18054;51.572;7.372;2023-05-03T04:48:06;24.83;;;9.60;;
31424;SDS011;18054;51.572;7.372;2023-05-03T04:50:34;26.85;;;8.52;;
31424;SDS011;18054;51.572;7.372;2023-05-03T04:53:04;25.15;;;8.98;;
31424;SDS011;18054;51.572;7.372;2023-05-03T04:55:35;26.08;;;9.55;;
31424;SDS011;18054;51.572;7.372;2023-05-03T04:58:03;32.30;;;10.30;;
31424;SDS011;18054;51.572;7.372;2023-05-03T05:00:31;16.42;;;8.77;;
31424;SDS011;18054;51.572;7.372;2023-05-03T05:03:06;19.85;;;9.02;;
31424;SDS011;18054;51.572;7.372;2023-05-03T05:05:34;38.45;;;9.98;;
31424;SDS011;18054;51.572;7.372;2023-05-03T05:08:02;40.45;;;11.60;;
31424;SDS011;18054;51.572;7.372;2023-05-03T05:10:35;41.78;;;12.50;;
31424;SDS011;18054;51.572;7.372;2023-05-03T05:13:03;44.55;;;13.35;;
31424;SDS011;18054;51.572;7.372;2023-05-03T05:15:32;28.08;;;12.93;;
31424;SDS011;18054;51.572;7.372;2023-05-03T05:17:59;38.17;;;14.00;;
31424;SDS011;18054;51.572;7.372;2023-05-03T05:20:29;32.50;;;13.65;;
31424;SDS011;18054;51.572;7.372;2023-05-03T05:22:57;40.83;;;13.52;;
31424;SDS011;18054;51.572;7.372;2023-05-03T05:27:52;37.17;;;11.82;;
31424;SDS011;18054;51.572;7.372;2023-05-03T05:30:20;26.02;;;12.13;;
31424;SDS011;18054;51.572;7.372;2023-05-03T05:32:48;25.15;;;11.95;;
31424;SDS011;18054;51.572;7.372;2023-05-03T05:35:16;25.67;;;11.32;;
31424;SDS011;18054;51.572;7.372;2023-05-03T05:37:45;25.17;;;10.43;;
31424;SDS011;18054;51.572;7.372;2023-05-03T05:40:13;18.42;;;10.45;;
31424;SDS011;18054;51.572;7.372;2023-05-03T05:42:46;18.67;;;9.95;;
31424;SDS011;18054;51.572;7.372;2023-05-03T05:45:14;29.08;;;10.68;;
31424;SDS011;18054;51.572;7.372;2023-05-03T05:47:41;29.88;;;9.70;;
31424;SDS011;18054;51.572;7.372;2023-05-03T05:50:09;22.60;;;9.20;;
31424;SDS011;18054;51.572;7.372;2023-05-03T05:52:49;23.33;;;9.38;;
31424;SDS011;18054;51.572;7.372;2023-05-03T05:55:18;26.08;;;8.65;;
31424;SDS011;18054;51.572;7.372;2023-05-03T05:57:47;19.38;;;8.52;;
31424;SDS011;18054;51.572;7.372;2023-05-03T06:00:18;20.23;;;9.00;;
31424;SDS011;18054;51.572;7.372;2023-05-03T06:02:46;19.60;;;8.50;;
31424;SDS011;18054;51.572;7.372;2023-05-03T06:05:17;29.27;;;8.50;;
31424;SDS011;18054;51.572;7.372;2023-05-03T06:07:44;17.45;;;7.88;;
31424;SDS011;18054;51.572;7.372;2023-05-03T06:10:13;14.45;;;7.38;;
31424;SDS011;18054;51.572;7.372;2023-05-03T06:12:45;21.98;;;8.50;;
31424;SDS011;18054;51.572;7.372;2023-05-03T06:15:17;12.00;;;6.03;;
31424;SDS011;18054;51.572;7.372;2023-05-03T06:20:13;18.40;;;7.00;;
31424;SDS011;18054;51.572;7.372;2023-05-03T06:22:41;20.65;;;6.63;;
31424;SDS011;18054;51.572;7.372;2023-05-03T06:25:10;19.10;;;6.57;;
31424;SDS011;18054;51.572;7.372;2023-05-03T06:27:45;26.70;;;6.43;;
31424;SDS011;18054;51.572;7.372;2023-05-03T06:30:13;17.27;;;6.60;;
31424;SDS011;18054;51.572;7.372;2023-05-03T06:32:41;19.83;;;5.90;;
31424;SDS011;18054;51.572;7.372;2023-05-03T06:35:09;20.00;;;6.55;;
31424;SDS011;18054;51.572;7.372;2023-05-03T06:37:38;17.95;;;5.60;;
31424;SDS011;18054;51.572;7.372;2023-05-03T06:40:06;19.17;;;5.20;;
31424;SDS011;18054;51.572;7.372;2023-05-03T06:42:35;18.08;;;5.45;;
31424;SDS011;18054;51.572;7.372;2023-05-03T06:45:10;15.13;;;5.28;;
31424;SDS011;18054;51.572;7.372;2023-05-03T06:47:38;15.10;;;5.63;;
31424;SDS011;18054;51.572;7.372;2023-05-03T06:50:08;17.23;;;5.32;;
31424;SDS011;18054;51.572;7.372;2023-05-03T06:52:36;16.60;;;4.88;;
31424;SDS011;18054;51.572;7.372;2023-05-03T06:55:04;12.73;;;5.10;;
31424;SDS011;18054;51.572;7.372;2023-05-03T06:57:32;17.85;;;4.95;;
31424;SDS011;18054;51.572;7.372;2023-05-03T06:59:59;24.48;;;5.53;;
31424;SDS011;18054;51.572;7.372;2023-05-03T07:02:28;27.15;;;7.78;;
31424;SDS011;18054;51.572;7.372;2023-05-03T07:04:56;14.45;;;5.28;;
31424;SDS011;18054;51.572;7.372;2023-05-03T07:07:23;21.25;;;5.22;;
31424;SDS011;18054;51.572;7.372;2023-05-03T07:09:51;18.40;;;5.20;;
31424;SDS011;18054;51.572;7.372;2023-05-03T07:12:18;10.88;;;4.07;;
31424;SDS011;18054;51.572;7.372;2023-05-03T07:14:45;9.45;;;3.80;;
31424;SDS011;18054;51.572;7.372;2023-05-03T07:17:13;8.90;;;3.95;;
31424;SDS011;18054;51.572;7.372;2023-05-03T07:19:42;9.30;;;3.67;;
31424;SDS011;18054;51.572;7.372;2023-05-03T07:22:10;24.70;;;4.80;;
31424;SDS011;18054;51.572;7.372;2023-05-03T07:24:37;15.52;;;3.95;;
31424;SDS011;18054;51.572;7.372;2023-05-03T07:27:05;14.52;;;4.82;;
31424;SDS011;18054;51.572;7.372;2023-05-03T07:29:32;10.23;;;3.42;;
31424;SDS011;18054;51.572;7.372;2023-05-03T07:32:00;10.80;;;4.03;;
31424;SDS011;18054;51.572;7.372;2023-05-03T07:34:28;13.55;;;3.90;;
31424;SDS011;18054;51.572;7.372;2023-05-03T07:36:59;9.07;;;3.30;;
31424;SDS011;18054;51.572;7.372;2023-05-03T07:39:26;11.75;;;3.30;;
31424;SDS011;18054;51.572;7.372;2023-05-03T07:41:53;11.55;;;3.60;;
31424;SDS011;18054;51.572;7.372;2023-05-03T07:44:21;8.80;;;3.25;;
31424;SDS011;18054;51.572;7.372;2023-05-03T07:46:49;4.60;;;2.58;;
31424;SDS011;18054;51.572;7.372;2023-05-03T07:49:16;8.63;;;3.25;;
31424;SDS011;18054;51.572;7.372;2023-05-03T07:51:43;8.95;;;2.90;;
31424;SDS011;18054;51.572;7.372;2023-05-03T07:54:12;7.53;;;2.28;;
31424;SDS011;18054;51.572;7.372;2023-05-03T07:56:40;11.40;;;3.63;;
31424;SDS011;18054;51.572;7.372;2023-05-03T07:59:07;9.20;;;3.28;;
31424;SDS011;18054;51.572;7.372;2023-05-03T08:01:36;9.18;;;2.92;;
31424;SDS011;18054;51.572;7.372;2023-05-03T08:04:03;19.58;;;3.85;;
31424;SDS011;18054;51.572;7.372;2023-05-03T08:06:32;11.27;;;3.63;;
31424;SDS011;18054;51.572;7.372;2023-05-03T08:09:00;11.95;;;2.95;;
31424;SDS011;18054;51.572;7.372;2023-05-03T08:11:31;10.55;;;3.08;;
31424;SDS011;18054;51.572;7.372;2023-05-03T08:13:59;16.23;;;3.63;;
31424;SDS011;18054;51.572;7.372;2023-05-03T08:16:26;10.32;;;2.90;;
31424;SDS011;18054;51.572;7.372;2023-05-03T08:18:54;12.35;;;3.40;;
31424;SDS011;18054;51.572;7.372;2023-05-03T08:21:21;6.93;;;3.00;;
31424;SDS011;18054;51.572;7.372;2023-05-03T08:23:50;25.15;;;3.55;;
31424;SDS011;18054;51.572;7.372;2023-05-03T08:26:18;11.07;;;3.35;;
31424;SDS011;18054;51.572;7.372;2023-05-03T08:28:49;7.45;;;2.95;;
31424;SDS011;18054;51.572;7.372;2023-05-03T08:31:16;10.13;;;3.33;;
31424;SDS011;18054;51.572;7.372;2023-05-03T08:33:44;9.07;;;3.42;;
31424;SDS011;18054;51.572;7.372;2023-05-03T08:36:13;17.33;;;4.72;;
31424;SDS011;18054;51.572;7.372;2023-05-03T08:38:41;12.85;;;3.70;;
31424;SDS011;18054;51.572;7.372;2023-05-03T08:41:14;10.23;;;3.72;;
31424;SDS011;18054;51.572;7.372;2023-05-03T08:43:44;10.43;;;3.22;;
31424;SDS011;18054;51.572;7.372;2023-05-03T08:46:14;12.40;;;3.15;;
31424;SDS011;18054;51.572;7.372;2023-05-03T08:48:42;6.05;;;3.05;;
31424;SDS011;18054;51.572;7.372;2023-05-03T08:51:09;10.95;;;3.35;;
31424;SDS011;18054;51.572;7.372;2023-05-03T08:58:33;10.75;;;3.55;;
31424;SDS011;18054;51.572;7.372;2023-05-03T09:01:03;51.88;;;5.72;;
31424;SDS011;18054;51.572;7.372;2023-05-03T09:03:33;7.55;;;3.38;;
31424;SDS011;18054;51.572;7.372;2023-05-03T09:06:01;7.70;;;3.00;;
31424;SDS011;18054;51.572;7.372;2023-05-03T09:08:29;11.52;;;3.33;;
31424;SDS011;18054;51.572;7.372;2023-05-03T09:10:57;9.98;;;3.22;;
31424;SDS011;18054;51.572;7.372;2023-05-03T09:13:28;8.38;;;3.00;;
31424;SDS011;18054;51.572;7.372;2023-05-03T09:15:56;9.93;;;3.45;;
31424;SDS011;18054;51.572;7.372;2023-05-03T09:18:24;8.00;;;3.20;;
31424;SDS011;18054;51.572;7.372;2023-05-03T09:20:53;9.68;;;2.60;;
31424;SDS011;18054;51.572;7.372;2023-05-03T09:23:29;8.35;;;3.30;;
31424;SDS011;18054;51.572;7.372;2023-05-03T09:25:58;16.85;;;3.28;;
31424;SDS011;18054;51.572;7.372;2023-05-03T09:31:02;9.45;;;3.38;;
31424;SDS011;18054;51.572;7.372;2023-05-03T09:33:30;9.15;;;3.45;;
31424;SDS011;18054;51.572;7.372;2023-05-03T09:35:59;8.95;;;3.53;;
31424;SDS011;18054;51.572;7.372;2023-05-03T09:38:27;14.35;;;3.97;;
31424;SDS011;18054;51.572;7.372;2023-05-03T09:40:55;19.05;;;3.60;;
31424;SDS011;18054;51.572;7.372;2023-05-03T09:43:23;9.70;;;3.95;;
31424;SDS011;18054;51.572;7.372;2023-05-03T09:45:50;14.20;;;3.63;;
31424;SDS011;18054;51.572;7.372;2023-05-03T09:48:17;7.65;;;3.30;;
31424;SDS011;18054;51.572;7.372;2023-05-03T09:50:48;10.32;;;3.47;;
31424;SDS011;18054;51.572;7.372;2023-05-03T09:53:17;12.90;;;3.45;;
31424;SDS011;18054;51.572;7.372;2023-05-03T09:55:46;14.90;;;3.50;;
31424;SDS011;18054;51.572;7.372;2023-05-03T09:58:17;7.63;;;3.17;;
31424;SDS011;18054;51.572;7.372;2023-05-03T10:00:45;10.02;;;3.15;;
31424;SDS011;18054;51.572;7.372;2023-05-03T10:03:18;10.70;;;3.40;;
31424;SDS011;18054;51.572;7.372;2023-05-03T10:05:49;13.98;;;3.58;;
31424;SDS011;18054;51.572;7.372;2023-05-03T10:08:21;9.65;;;3.17;;
31424;SDS011;18054;51.572;7.372;2023-05-03T10:10:51;10.70;;;3.30;;
31424;SDS011;18054;51.572;7.372;2023-05-03T10:13:19;8.80;;;3.08;;
31424;SDS011;18054;51.572;7.372;2023-05-03T10:15:48;8.07;;;3.20;;
31424;SDS011;18054;51.572;7.372;2023-05-03T10:18:16;9.52;;;2.75;;
31424;SDS011;18054;51.572;7.372;2023-05-03T10:20:46;14.25;;;4.55;;
31424;SDS011;18054;51.572;7.372;2023-05-03T10:23:16;11.65;;;3.42;;
31424;SDS011;18054;51.572;7.372;2023-05-03T10:28:31;5.97;;;2.78;;
31424;SDS011;18054;51.572;7.372;2023-05-03T10:30:59;15.32;;;3.50;;
31424;SDS011;18054;51.572;7.372;2023-05-03T10:33:29;8.07;;;3.08;;
31424;SDS011;18054;51.572;7.372;2023-05-03T10:36:03;7.97;;;3.85;;
31424;SDS011;18054;51.572;7.372;2023-05-03T10:38:30;12.35;;;2.92;;
31424;SDS011;18054;51.572;7.372;2023-05-03T10:43:42;7.53;;;3.03;;
31424;SDS011;18054;51.572;7.372;2023-05-03T10:46:29;10.25;;;2.92;;
31424;SDS011;18054;51.572;7.372;2023-05-03T10:53:53;9.63;;;3.20;;
31424;SDS011;18054;51.572;7.372;2023-05-03T10:56:21;12.45;;;3.15;;
31424;SDS011;18054;51.572;7.372;2023-05-03T10:58:50;11.10;;;3.42;;
31424;SDS011;18054;51.572;7.372;2023-05-03T11:01:21;17.92;;;4.22;;
31424;SDS011;18054;51.572;7.372;2023-05-03T11:03:50;17.30;;;3.38;;
31424;SDS011;18054;51.572;7.372;2023-05-03T11:06:31;12.93;;;3.78;;
31424;SDS011;18054;51.572;7.372;2023-05-03T11:08:59;5.50;;;2.67;;
31424;SDS011;18054;51.572;7.372;2023-05-03T11:11:27;9.73;;;3.30;;
31424;SDS011;18054;51.572;7.372;2023-05-03T11:13:56;8.00;;;3.25;;
31424;SDS011;18054;51.572;7.372;2023-05-03T11:16:24;10.27;;;2.90;;
31424;SDS011;18054;51.572;7.372;2023-05-03T11:21:19;8.00;;;2.60;;
31424;SDS011;18054;51.572;7.372;2023-05-03T11:23:46;10.00;;;3.63;;
31424;SDS011;18054;51.572;7.372;2023-05-03T11:26:14;15.90;;;3.10;;
31424;SDS011;18054;51.572;7.372;2023-05-03T11:28:42;5.97;;;2.90;;
31424;SDS011;18054;51.572;7.372;2023-05-03T11:33:38;11.68;;;3.20;;
31424;SDS011;18054;51.572;7.372;2023-05-03T11:36:06;9.80;;;3.25;;
31424;SDS011;18054;51.572;7.372;2023-05-03T11:38:36;6.00;;;2.67;;
31424;SDS011;18054;51.572;7.372;2023-05-03T11:41:08;6.60;;;2.97;;
31424;SDS011;18054;51.572;7.372;2023-05-03T11:43:39;12.27;;;3.28;;
31424;SDS011;18054;51.572;7.372;2023-05-03T11:46:06;8.40;;;2.72;;
31424;SDS011;18054;51.572;7.372;2023-05-03T11:48:35;6.38;;;2.10;;
31424;SDS011;18054;51.572;7.372;2023-05-03T11:51:07;8.10;;;2.60;;
31424;SDS011;18054;51.572;7.372;2023-05-03T11:53:36;13.32;;;2.72;;
31424;SDS011;18054;51.572;7.372;2023-05-03T11:56:05;7.13;;;2.40;;
31424;SDS011;18054;51.572;7.372;2023-05-03T11:58:33;5.00;;;2.35;;
31424;SDS011;18054;51.572;7.372;2023-05-03T12:03:28;11.98;;;3.28;;
31424;SDS011;18054;51.572;7.372;2023-05-03T12:05:59;6.55;;;2.40;;
31424;SDS011;18054;51.572;7.372;2023-05-03T12:08:30;8.93;;;2.80;;
31424;SDS011;18054;51.572;7.372;2023-05-03T12:11:02;16.85;;;2.70;;
31424;SDS011;18054;51.572;7.372;2023-05-03T12:13:33;5.45;;;2.47;;
31424;SDS011;18054;51.572;7.372;2023-05-03T12:16:05;8.30;;;3.22;;
31424;SDS011;18054;51.572;7.372;2023-05-03T12:18:48;8.90;;;2.70;;
31424;SDS011;18054;51.572;7.372;2023-05-03T12:21:18;7.55;;;2.53;;
31424;SDS011;18054;51.572;7.372;2023-05-03T12:23:49;8.45;;;2.55;;
31424;SDS011;18054;51.572;7.372;2023-05-03T12:26:21;9.45;;;3.35;;
31424;SDS011;18054;51.572;7.372;2023-05-03T12:28:51;6.00;;;2.72;;
31424;SDS011;18054;51.572;7.372;2023-05-03T12:31:22;8.10;;;2.97;;
31424;SDS011;18054;51.572;7.372;2023-05-03T12:33:50;8.38;;;2.67;;
31424;SDS011;18054;51.572;7.372;2023-05-03T12:36:21;9.20;;;3.45;;
31424;SDS011;18054;51.572;7.372;2023-05-03T12:38:52;6.25;;;2.60;;
31424;SDS011;18054;51.572;7.372;2023-05-03T12:41:21;8.05;;;2.90;;
31424;SDS011;18054;51.572;7.372;2023-05-03T12:44:12;5.47;;;2.65;;
31424;SDS011;18054;51.572;7.372;2023-05-03T12:46:42;6.97;;;2.80;;
31424;SDS011;18054;51.572;7.372;2023-05-03T12:49:11;10.95;;;3.38;;
31424;SDS011;18054;51.572;7.372;2023-05-03T12:51:40;6.47;;;2.90;;
31424;SDS011;18054;51.572;7.372;2023-05-03T12:54:10;8.15;;;2.97;;
31424;SDS011;18054;51.572;7.372;2023-05-03T12:56:37;12.57;;;3.20;;
31424;SDS011;18054;51.572;7.372;2023-05-03T12:59:06;11.18;;;3.28;;
31424;SDS011;18054;51.572;7.372;2023-05-03T13:01:37;7.75;;;3.25;;
31424;SDS011;18054;51.572;7.372;2023-05-03T13:04:08;22.58;;;4.03;;
31424;SDS011;18054;51.572;7.372;2023-05-03T13:06:55;8.13;;;3.53;;
31424;SDS011;18054;51.572;7.372;2023-05-03T13:09:27;13.65;;;3.50;;
31424;SDS011;18054;51.572;7.372;2023-05-03T13:12:14;8.98;;;3.25;;
31424;SDS011;18054;51.572;7.372;2023-05-03T13:14:45;11.85;;;3.42;;
31424;SDS011;18054;51.572;7.372;2023-05-03T13:19:40;11.13;;;3.25;;
31424;SDS011;18054;51.572;7.372;2023-05-03T13:22:08;7.45;;;3.30;;
31424;SDS011;18054;51.572;7.372;2023-05-03T13:24:37;8.15;;;3.47;;
31424;SDS011;18054;51.572;7.372;2023-05-03T13:27:04;7.85;;;3.47;;
31424;SDS011;18054;51.572;7.372;2023-05-03T13:29:32;6.00;;;3.10;;
31424;SDS011;18054;51.572;7.372;2023-05-03T13:31:59;7.75;;;2.65;;
31424;SDS011;18054;51.572;7.372;2023-05-03T13:34:27;7.50;;;2.88;;
31424;SDS011;18054;51.572;7.372;2023-05-03T13:36:55;13.90;;;2.97;;
31424;SDS011;18054;51.572;7.372;2023-05-03T13:41:51;6.47;;;3.00;;
31424;SDS011;18054;51.572;7.372;2023-05-03T13:44:19;9.38;;;3.30;;
31424;SDS011;18054;51.572;7.372;2023-05-03T13:46:50;10.75;;;2.58;;
31424;SDS011;18054;51.572;7.372;2023-05-03T13:49:18;11.77;;;3.85;;
31424;SDS011;18054;51.572;7.372;2023-05-03T13:51:45;7.55;;;2.80;;
31424;SDS011;18054;51.572;7.372;2023-05-03T13:56:40;8.15;;;3.47;;
31424;SDS011;18054;51.572;7.372;2023-05-03T13:59:10;8.38;;;3.65;;
31424;SDS011;18054;51.572;7.372;2023-05-03T14:01:38;10.32;;;3.17;;
31424;SDS011;18054;51.572;7.372;2023-05-03T14:04:08;8.65;;;3.45;;
31424;SDS011;18054;51.572;7.372;2023-05-03T14:06:36;10.50;;;3.78;;
31424;SDS011;18054;51.572;7.372;2023-05-03T14:09:07;14.45;;;3.55;;
31424;SDS011;18054;51.572;7.372;2023-05-03T14:11:34;8.75;;;3.28;;
31424;SDS011;18054;51.572;7.372;2023-05-03T14:14:03;8.20;;;2.95;;
31424;SDS011;18054;51.572;7.372;2023-05-03T14:16:32;8.25;;;3.38;;
31424;SDS011;18054;51.572;7.372;2023-05-03T14:19:02;11.10;;;3.92;;
31424;SDS011;18054;51.572;7.372;2023-05-03T14:21:30;14.55;;;3.30;;
31424;SDS011;18054;51.572;7.372;2023-05-03T14:28:54;16.05;;;4.03;;
31424;SDS011;18054;51.572;7.372;2023-05-03T14:31:21;13.73;;;3.80;;
31424;SDS011;18054;51.572;7.372;2023-05-03T14:33:50;10.00;;;3.50;;
31424;SDS011;18054;51.572;7.372;2023-05-03T14:36:18;8.70;;;3.90;;
31424;SDS011;18054;51.572;7.372;2023-05-03T14:38:45;10.52;;;4.15;;
31424;SDS011;18054;51.572;7.372;2023-05-03T14:41:13;9.43;;;3.97;;
31424;SDS011;18054;51.572;7.372;2023-05-03T14:43:40;13.10;;;4.68;;
31424;SDS011;18054;51.572;7.372;2023-05-03T14:46:07;11.55;;;4.45;;
31424;SDS011;18054;51.572;7.372;2023-05-03T14:48:35;15.90;;;4.80;;
31424;SDS011;18054;51.572;7.372;2023-05-03T14:51:05;17.75;;;4.80;;
31424;SDS011;18054;51.572;7.372;2023-05-03T14:53:32;10.95;;;4.32;;
31424;SDS011;18054;51.572;7.372;2023-05-03T14:56:00;14.60;;;4.97;;
31424;SDS011;18054;51.572;7.372;2023-05-03T14:58:28;7.43;;;4.45;;
31424;SDS011;18054;51.572;7.372;2023-05-03T15:00:55;11.27;;;4.20;;
31424;SDS011;18054;51.572;7.372;2023-05-03T15:03:23;9.98;;;4.78;;
31424;SDS011;18054;51.572;7.372;2023-05-03T15:05:51;17.73;;;4.72;;
31424;SDS011;18054;51.572;7.372;2023-05-03T15:08:20;14.82;;;4.93;;
31424;SDS011;18054;51.572;7.372;2023-05-03T15:10:47;10.27;;;4.90;;
31424;SDS011;18054;51.572;7.372;2023-05-03T15:13:14;11.80;;;4.90;;
31424;SDS011;18054;51.572;7.372;2023-05-03T15:18:11;9.60;;;4.38;;
31424;SDS011;18054;51.572;7.372;2023-05-03T15:20:39;12.05;;;5.07;;
31424;SDS011;18054;51.572;7.372;2023-05-03T15:23:06;12.57;;;4.43;;
31424;SDS011;18054;51.572;7.372;2023-05-03T15:25:35;16.73;;;5.10;;
31424;SDS011;18054;51.572;7.372;2023-05-03T15:28:03;11.80;;;5.05;;
31424;SDS011;18054;51.572;7.372;2023-05-03T15:30:30;15.55;;;5.10;;
31424;SDS011;18054;51.572;7.372;2023-05-03T15:32:58;19.95;;;5.32;;
31424;SDS011;18054;51.572;7.372;2023-05-03T15:35:26;11.25;;;4.97;;
31424;SDS011;18054;51.572;7.372;2023-05-03T15:37:53;9.73;;;5.32;;
31424;SDS011;18054;51.572;7.372;2023-05-03T15:40:20;9.98;;;4.70;;
31424;SDS011;18054;51.572;7.372;2023-05-03T15:42:53;8.60;;;4.72;;
31424;SDS011;18054;51.572;7.372;2023-05-03T15:45:20;12.63;;;5.60;;